Weather at Miramar Marine Corps Air Station - Mitscher Field

Public forecast

Using degrees Fahrenheit for public forecast. Weather courtesy of forecast.io.

Current aviation weather report (METAR) for Miramar Marine Corps Air Station - Mitscher Field

Retrieved 2021/09/18 06:55 UTC (58 minutes ago):

KNKX 180655Z 33004KT 10SM FEW110 17/14 A3003 RMK AO2 SLP165 T01670144

Aviation forecast (TAF) for Miramar Marine Corps Air Station - Mitscher Field

Forecast is more than 12 hours old.

Retrieved 2020/04/17 09:18 UTC (1 year ago):

TAF KNKX 171200Z 1709/1809 VRB05KT 9999 SCT030 QNH2992INS TEMPO 1709/1715 BKN010 TEMPO 1719/1801 24010G15KT T12/1710Z T22/1721Z